Parksville, Kentucky
Current Conditions -  °F | °C
As of 2:15 AM on Sunday 26 Oct 2014 (Local Time) from KDVK Reporting Station
Clear Clear  
Wind Chill: 64°   Ceiling: Unl
Heat Index: 64°   Visibility: 10mi
Dew Point: 52°   Wind: 8mph
Humidity: 64%   Direction: 290°WNW
Pressure: 29.99"   Gusts: 17mph
Location:  37.6°N, 84.89°W
Report Text: KDVK 260615Z AUTO 29007G15KT 10SM CLR 18/11 A2999 RMK AO2
Loading
Personal Weather Stations






























Interactive Weather Map
Tropical Storm Tracking
New forecast layout! Learn more

10-Day Weather Forecast

Advertisements
Track Severe Weather on mobile